Terminal Aerodrome Forecast
Issued by NWS

Home | Current Version | Previous Version | Text Only | Print | Product List | Glossary On
Versions: 1 2 3 4 5 6 7 8 9 10 11 12 13 14
000
FTUS42 KTAE 280520
TAFECP
TAF
KECP 280520Z 2806/2906 00000KT P6SM OVC200
     FM281400 09005KT P6SM SCT040 BKN200
     FM281700 20007KT P6SM VCSH SCT040 BKN120 OVC200
     FM281900 24007KT P6SM VCTS BKN040CB OVC120
     FM290000 00000KT P6SM FEW040 BKN120=

USA.gov is the U.S. government's official web portal to all federal, state and local government web resources and services.